Station: Parawa West  

  Atmospheric Gas Attenuation - ITU Rec 676-11   ----------------- dB/100km -----------------
Date Time Temp RH % AH g/m3 Dew Point Wind Direction Speed kph Gust kph Barometer mB Rainfall Since 9am 24GHz 47GHz 76GHz 122GHz 134GHz 241GHz
08/05 12:00 13 95 10.77 12.2 22 32 1030.3 0.4 24.3 30.5 50.2 132.1 131.3 453.3
08/05 11:50 12.6 95 10.51 11.8 26 32 1030.6 0.4 23.7 30.2 49.4 129.7 128.2 442.5
08/05 11:40 13.3 94 10.86 12.3 20 24 1030.7 0.4 24.4 30.6 50.5 132.7 132.1 456.2
08/05 11:30 13.4 92 10.7 12.1 22 35 1030.7 0.4 24.1 30.3 49.7 130.6 129.6 447.5
08/05 11:20 13.3 93 10.75 12.2 20 24 1030.8 0.4 24.2 30.4 50.0 131.4 130.6 450.7
08/05 11:10 12.9 97 10.93 12.4 28 30 1030.8 0.4 24.6 30.9 51.1 134.2 133.9 462.2
08/05 11:00 12.6 98 10.84 12.3 26 35 1030.9 0.4 24.4 30.8 50.9 133.7 133.1 459.4
08/05 10:50 12.7 98 10.91 12.4 24 30 1030.9 0.4 24.6 30.9 51.1 134.3 133.9 462.4
08/05 10:40 12.3 100 10.86 12.3 24 26 1031 0.4 24.5 30.9 51.1 134.4 133.9 462.3
08/05 10:30 12.1 100 10.73 12.1 32 43 1031 0.4 24.2 30.8 50.7 133.2 132.4 456.8
08/05 10:20 12.1 100 10.73 12.1 26 35 1030.9 0.4 24.2 30.8 50.7 133.2 132.3 456.8
08/05 10:10 12.2 100 10.79 12.2 30 33 1030.8 0.4 24.3 30.8 50.9 133.7 133.0 459.2
08/05 10:00 11.9 100 10.59 11.9 28 39 1030.8 0.4 23.9 30.6 50.2 131.9 130.6 450.7
08/05 09:50 12.3 100 10.86 12.3 26 32 1030.8 0.2 24.5 30.9 51.1 134.4 133.9 462.2
08/05 09:40 12.4 100 10.93 12.4 22 28 1030.8 0 24.6 31.0 51.4 135.1 134.8 465.2
08/05 09:30 12.3 100 10.86 12.3 19 28 1030.7 0 24.5 30.9 51.1 134.4 133.9 462.2
08/05 09:20 12.1 100 10.73 12.1 13 20 1030.8 0 24.2 30.8 50.7 133.2 132.3 456.7
08/05 09:10 11.9 100 10.59 11.9 20 28 1030.7 0 23.9 30.6 50.2 131.9 130.6 450.7
08/05 09:00 11.8 100 10.53 11.8 19 33 1030.7 0 23.8 30.5 50.0 131.3 129.9 448.2
08/05 08:50 11.8 100 10.53 11.8 17 20 1030.6 0.4 23.8 30.5 50.0 131.3 129.9 448.1
08/05 08:40 11.7 100 10.46 11.7 13 17 1030.4 0.4 23.7 30.4 49.7 130.6 129.0 445.0
08/05 08:30 11.5 99 10.23 11.3 20 32 1030.4 0.4 23.2 30.1 48.8 128.2 126.0 434.4
08/05 08:20 11.4 99 10.16 11.2 15 19 1030.4 0.4 23.0 30.0 48.6 127.5 125.1 431.4
08/05 08:10 11.2 99 10.04 11 11 17 1030.3 0.4 22.8 29.8 48.1 126.4 123.7 426.4
08/05 08:00 11.1 98 9.87 10.8 13 22 1030.3 0.2 22.4 29.6 47.5 124.6 121.4 418.3
08/05 07:50 11.2 95 9.63 10.5 13 15 1030.2 0.2 21.9 29.1 46.3 121.6 117.7 405.6
08/05 07:40 11.2 95 9.63 10.4 13 17 1030.1 0.2 21.9 29.1 46.3 121.6 117.7 405.6
08/05 07:30 11.2 94 9.53 10.3 15 26 1030 0.2 21.7 28.9 45.9 120.4 116.3 400.5
08/05 07:20 11.3 92 9.39 10 17 19 1029.9 0.2 21.4 28.6 45.2 118.6 114.1 393.0
08/05 07:10 11.2 93 9.43 10.1 15 19 1029.9 0.2 21.5 28.7 45.4 119.2 114.8 395.5
08/05 07:00 11.2 93 9.43 10.1 15 24 1029.8 0.2 21.5 28.7 45.4 119.2 114.8 395.4
08/05 06:50 11.3 93 9.49 10.2 9 11 1029.6 0.2 21.6 28.8 45.6 119.8 115.5 397.9
08/05 06:40 11.3 92 9.39 10 11 13 1029.5 0.2 21.4 28.6 45.2 118.6 114.1 392.8
08/05 06:30 11.4 90 9.24 9.8 13 20 1029.4 0.2 21.1 28.3 44.5 116.7 111.8 384.9
08/05 06:20 11.5 87 8.99 9.5 13 15 1029.4 0.2 20.5 27.9 43.4 113.7 108.1 372.1
08/05 06:10 11.5 87 8.99 9.4 15 19 1029.3 0.2 20.5 27.9 43.4 113.7 108.1 372.1
08/05 06:00 11.5 86 8.88 9.2 13 22 1029.2 0.2 20.3 27.7 42.9 112.4 106.6 366.7
08/05 05:50 11.6 84 8.73 9 17 20 1029.3 0.2 20.0 27.4 42.2 110.6 104.4 359.0
08/05 05:40 11.5 85 8.78 9 9 11 1029.3 0.2 20.1 27.5 42.5 111.3 105.2 361.8
08/05 05:30 11.5 85 8.78 9.1 15 26 1029.3 0.2 20.1 27.5 42.5 111.3 105.2 361.8
08/05 05:20 11.4 87 8.93 9.3 15 19 1029.3 0.2 20.4 27.8 43.2 113.1 107.4 369.6
08/05 05:10 11.4 87 8.93 9.3 15 20 1029.3 0.2 20.4 27.8 43.2 113.1 107.4 369.6
08/05 05:00 11.4 86 8.83 9.1 9 15 1029.3 0.2 20.2 27.6 42.7 112.0 106.0 364.7
08/05 04:50 11.5 84 8.68 8.9 11 17 1029.3 0.2 19.9 27.3 42.0 110.2 103.8 357.0
08/05 04:40 11.4 84 8.62 8.8 9 13 1029.3 0.2 19.7 27.3 41.8 109.7 103.1 354.5
08/05 04:30 11.5 85 8.78 9.1 13 24 1029.4 0.2 20.1 27.5 42.5 111.3 105.2 361.9
08/05 04:20 11.2 90 9.12 9.7 7 11 1029.3 0.2 20.8 28.2 44.1 115.6 110.4 379.9
08/05 04:10 11.1 90 9.07 9.5 11 13 1029.3 0.2 20.7 28.1 43.9 115.2 109.8 377.9
08/05 04:00 11.1 89 8.97 9.4 9 15 1029.3 0.2 20.5 28.0 43.5 114.0 108.4 373.0
08/05 03:50 11.2 87 8.82 9.2 9 11 1029.3 0.2 20.2 27.7 42.8 112.2 106.2 365.2
08/05 03:40 11.2 86 8.72 8.9 9 11 1029.3 0.2 20.0 27.5 42.4 111.1 104.8 360.3
08/05 03:30 11.3 86 8.77 9 9 15 1029.3 0.2 20.1 27.5 42.5 111.5 105.3 362.3
08/05 03:20 11.1 88 8.87 9.2 7 9 1029.3 0.2 20.3 27.8 43.1 112.9 107.0 368.1
08/05 03:10 11 92 9.21 9.7 13 19 1029.5 0.2 21.0 28.4 44.6 117.0 112.0 385.4
08/05 03:00 10.9 94 9.35 10 7 11 1029.5 0.2 21.3 28.7 45.3 118.7 114.1 392.9
08/05 02:50 10.9 95 9.45 10.1 6 7 1029.4 0.2 21.5 28.9 45.7 119.9 115.5 397.9
08/05 02:40 10.8 95 9.39 10.1 9 11 1029.4 0.2 21.4 28.8 45.5 119.3 114.8 395.4
08/05 02:30 10.8 96 9.49 10.2 11 19 1029.5 0.2 21.6 29.0 45.9 120.5 116.3 400.4
08/05 02:20 10.7 95 9.33 10 13 17 1029.5 0.2 21.3 28.7 45.3 118.8 114.1 392.9
08/05 02:10 10.9 92 9.15 9.6 13 15 1029.6 0.2 20.9 28.3 44.4 116.4 111.3 383.0
08/05 02:00 11 87 8.71 8.9 15 26 1029.6 0.2 19.9 27.5 42.5 111.3 104.9 360.8
08/05 01:50 11.2 82 8.31 8.2 17 19 1029.5 0.2 19.1 26.8 40.7 106.5 99.1 340.6
08/05 01:40 11.2 81 8.21 8 9 13 1029.6 0.2 18.9 26.6 40.3 105.4 97.8 335.8
08/05 01:30 11.2 81 8.21 8.1 17 32 1029.8 0.2 18.9 26.7 40.3 105.4 97.8 335.9
08/05 01:20 11 82 8.21 8 17 20 1029.8 0.2 18.9 26.7 40.4 105.7 98.1 336.7
08/05 01:10 10.9 86 8.56 8.6 20 28 1029.8 0.2 19.6 27.3 41.9 109.7 103.0 354.1
08/05 01:00 10.6 93 9.08 9.5 9 15 1029.8 0.2 20.8 28.3 44.3 116.1 110.7 381.0
08/05 00:50 10.4 95 9.16 9.6 9 9 1029.9 0.2 20.9 28.5 44.7 117.3 112.2 386.0
08/05 00:40 10.3 95 9.1 9.5 9 11 1029.8 0.2 20.8 28.5 44.5 116.8 111.5 383.5
08/05 00:30 10.3 95 9.1 9.5 9 17 1029.9 0.2 20.8 28.5 44.5 116.8 111.5 383.5
08/05 00:20 10.5 93 9.02 9.4 9 15 1029.9 0 20.6 28.3 44.1 115.6 110.0 378.6
08/05 00:10 10.6 93 9.08 9.5 9 13 1029.9 0 20.8 28.3 44.3 116.1 110.7 381.1
08/05 00:00 10.6 93 9.08 9.5 9 13 1029.9 0 20.8 28.3 44.3 116.1 110.7 381.1
07/05 23:50 10.5 95 9.22 9.7 11 11 1029.8 0 21.1 28.6 44.9 117.9 112.9 388.5
07/05 23:40 10.5 95 9.22 9.7 7 7 1030 0 21.1 28.6 44.9 117.9 112.9 388.6
07/05 23:30 10.4 95 9.16 9.6 11 19 1030.1 0 20.9 28.5 44.7 117.4 112.2 386.1
07/05 23:20 10.4 93 8.97 9.4 11 15 1030.1 0 20.5 28.2 43.9 115.2 109.5 376.6
07/05 23:10 10.6 90 8.79 9 9 11 1030.1 0 20.1 27.8 43.0 112.8 106.7 366.8
07/05 23:00 10.9 86 8.56 8.7 9 13 1030.1 0 19.6 27.3 41.9 109.8 103.0 354.1
07/05 22:50 10.8 84 8.3 8.3 11 13 1030.1 0 19.1 26.9 40.9 107.0 99.6 342.0
07/05 22:40 10.9 83 8.26 8.1 11 15 1030.2 0 19.0 26.8 40.6 106.4 98.9 339.7
07/05 22:30 11 81 8.11 7.9 11 19 1030.2 0 18.7 26.6 40.0 104.6 96.7 332.0
07/05 22:20 11 79 7.91 7.6 9 11 1030.2 0 18.2 26.2 39.1 102.4 94.0 322.5
07/05 22:10 11 79 7.91 7.5 13 15 1030.3 0 18.2 26.2 39.1 102.4 94.0 322.6
07/05 22:00 11 79 7.91 7.5 11 19 1030.3 0 18.2 26.2 39.1 102.4 94.0 322.6
07/05 21:50 10.9 78 7.76 7.2 15 19 1030.3 0 17.9 26.0 38.6 100.9 92.1 315.9
07/05 21:40 10.9 79 7.86 7.4 11 13 1030.2 0 18.1 26.2 39.0 102.0 93.5 320.6
07/05 21:30 10.8 79 7.81 7.3 9 13 1030.2 0 18.0 26.1 38.8 101.6 92.9 318.6
07/05 21:20 10.8 78 7.71 7.1 9 11 1030.2 0 17.8 26.0 38.4 100.5 91.5 313.9
07/05 21:10 10.7 78 7.66 7 9 13 1030.3 0 17.7 25.9 38.3 100.1 91.0 312.0
07/05 21:00 10.7 78 7.66 7 11 22 1030.4 0 17.7 25.9 38.3 100.1 91.0 312.0
07/05 20:50 10.7 76 7.47 6.6 9 13 1030.4 0 17.3 25.6 37.5 98.0 88.5 303.0
07/05 20:40 10.6 76 7.42 6.5 11 13 1030.3 0 17.2 25.5 37.3 97.6 87.9 301.1
07/05 20:30 10.5 76 7.37 6.5 9 17 1030.4 0 17.1 25.5 37.2 97.2 87.3 299.1
07/05 20:20 10.4 77 7.42 6.5 11 17 1030.4 0 17.2 25.6 37.4 97.8 88.1 301.9
07/05 20:10 10 81 7.61 6.9 9 13 1030.3 0 17.6 26.0 38.4 100.4 91.1 312.4
07/05 20:00 9.9 84 7.85 7.3 7 15 1030.3 0 18.2 26.5 39.4 103.2 94.5 324.2
07/05 19:50 10.2 87 8.28 8.1 7 7 1030.4 0 19.1 27.1 41.1 107.6 100.1 343.8
07/05 19:40 10.2 89 8.47 8.4 7 9 1030.6 0 19.5 27.4 41.9 109.8 102.8 353.1
07/05 19:30 10.1 89 8.42 8.4 7 11 1030.6 0 19.4 27.4 41.8 109.4 102.2 351.1

Last Refresh: 08-May-2026 12:08:17

Bureau of Meteorology